Hovedside
METAR-TAF:

METAR-TAF

Lufthavner :

Enontekis, Finland

Enontekiö lufthavn

breddegrad: 68-21-52N, lengdegrad: 023-25-39E, høyde over havet: 308 m

Gjeldene værobservasjon

Denne rapporten ble laget for 18 minutter siden, klokken 11:50 UTC
Vind 5 kt fra Sør-sørøst, skiftende mellom Sørøst og Sør-sørvest
Temperatur -4°C
Luftfuktighet 86%
Trykk 995 hPa
Sikt 10 km eller mer
Overskyet i en høyde av 800 ft
lett snø

METAR: EFET 151150Z AUTO 16005KT 130V200 9999 -SN OVC008 M04/M06 Q0995

Tid: 14:08 (12:08 UTC)

Varsel

Denne rapporten ble laget for 31 minutter siden, klokken 11:37 UTC
Varsel gyldig fra 15. klokken 12 UTC til 15. klokken 17 UTC
Vind 6 kt fra Sør
Sikt: 9000 m
Overskyet i en høyde av 700 ft
Midlertidig
fra 15. klokken 12 UTC til 15. klokken 17 UTC
Sikt: 4000 m
Få skyer i en høyde av 600 ft
Brutte skyer i en høyde av 1500 ft
lett snø

TAF: EFET 151137Z 1512/1517 17006KT 9000 OVC007 TEMPO 1512/1517 4000 -SN FEW006 BKN015

Værobservasjoner og værvarsel for over 4000 flyplasser (METAR- og TAF-rapporter).

Tilgjengelige stasjoner er representert av de røde og gule prikkene på kartet.

Hold musepekeren over prikken for å se navnet på stasjonen.

Klikk så for å se værobservasjoner og -varsler.

For å forandre kartet kan du klikke på den grønne knappen med svart kryss for å zoome inn, på den grønne knappen med strek for å zoome ut, eller på de grønne pilene for å se tilstøtende kart.


METAR-TAF: